Terminal Aerodrome Forecast
Issued by NWS

Home | Current Version | Previous Version | Text Only | Print | Product List | Glossary On
Versions: 1 2 3 4 5 6 7 8 9 10 11 12 13 14 15 16 17 18
000
FTUS45 KBOU 200521
TAFAPA
TAF
KAPA 200521Z 2006/2106 18005KT P6SM SCT250
     FM200800 21006KT P6SM BKN220
     FM201100 23008KT P6SM VCSH SCT050 BKN070 OVC120
      TEMPO 2013/2017 5SM -SHSN BKN025 OVC050
     FM201800 VRB05KT P6SM VCSH SCT040 OVC070
     FM202100 23008KT P6SM FEW060 SCT090 BKN120
     FM210200 19009KT P6SM FEW120 SCT200=

USA.gov is the U.S. government's official web portal to all federal, state and local government web resources and services.